sensor_id;sensor_type;location;lat;lon;timestamp;temperature;humidity
17607;DHT22;8922;52.240;20.980;2022-07-22T00:02:00;24.60;81.30
17607;DHT22;8922;52.240;20.980;2022-07-22T00:04:27;24.50;81.10
17607;DHT22;8922;52.240;20.980;2022-07-22T00:06:55;24.50;81.30
17607;DHT22;8922;52.240;20.980;2022-07-22T00:09:22;24.50;81.50
17607;DHT22;8922;52.240;20.980;2022-07-22T00:11:48;24.40;81.40
17607;DHT22;8922;52.240;20.980;2022-07-22T00:14:15;24.40;81.60
17607;DHT22;8922;52.240;20.980;2022-07-22T00:16:42;24.40;81.80
17607;DHT22;8922;52.240;20.980;2022-07-22T00:19:09;24.40;81.70
17607;DHT22;8922;52.240;20.980;2022-07-22T00:21:36;24.40;81.60
17607;DHT22;8922;52.240;20.980;2022-07-22T00:24:05;24.40;81.40
17607;DHT22;8922;52.240;20.980;2022-07-22T00:26:32;24.40;80.90
17607;DHT22;8922;52.240;20.980;2022-07-22T00:28:58;24.40;81.00
17607;DHT22;8922;52.240;20.980;2022-07-22T00:31:25;24.40;80.70
17607;DHT22;8922;52.240;20.980;2022-07-22T00:33:52;24.40;81.60
17607;DHT22;8922;52.240;20.980;2022-07-22T00:36:19;24.40;80.80
17607;DHT22;8922;52.240;20.980;2022-07-22T00:38:46;24.40;80.70
17607;DHT22;8922;52.240;20.980;2022-07-22T00:41:14;24.30;80.60
17607;DHT22;8922;52.240;20.980;2022-07-22T00:43:52;24.30;80.70
17607;DHT22;8922;52.240;20.980;2022-07-22T00:46:19;24.30;80.80
17607;DHT22;8922;52.240;20.980;2022-07-22T00:48:46;24.30;80.80
17607;DHT22;8922;52.240;20.980;2022-07-22T00:51:13;24.30;80.80
17607;DHT22;8922;52.240;20.980;2022-07-22T00:53:41;24.20;80.80
17607;DHT22;8922;52.240;20.980;2022-07-22T00:56:08;24.30;81.00
17607;DHT22;8922;52.240;20.980;2022-07-22T00:58:37;24.20;81.10
17607;DHT22;8922;52.240;20.980;2022-07-22T01:01:04;24.20;81.20
17607;DHT22;8922;52.240;20.980;2022-07-22T01:03:31;24.20;81.20
17607;DHT22;8922;52.240;20.980;2022-07-22T01:05:58;24.10;81.20
17607;DHT22;8922;52.240;20.980;2022-07-22T01:08:25;24.10;81.20
17607;DHT22;8922;52.240;20.980;2022-07-22T01:10:52;24.10;81.40
17607;DHT22;8922;52.240;20.980;2022-07-22T01:13:19;24.10;81.60
17607;DHT22;8922;52.240;20.980;2022-07-22T01:15:47;24.10;81.70
17607;DHT22;8922;52.240;20.980;2022-07-22T01:18:14;24.10;81.60
17607;DHT22;8922;52.240;20.980;2022-07-22T01:20:42;24.10;81.60
17607;DHT22;8922;52.240;20.980;2022-07-22T01:23:09;24.10;81.60
17607;DHT22;8922;52.240;20.980;2022-07-22T01:25:36;24.10;81.50
17607;DHT22;8922;52.240;20.980;2022-07-22T01:28:03;24.10;81.30
17607;DHT22;8922;52.240;20.980;2022-07-22T01:30:30;24.10;81.20
17607;DHT22;8922;52.240;20.980;2022-07-22T01:32:57;24.10;81.10
17607;DHT22;8922;52.240;20.980;2022-07-22T01:35:24;24.10;81.00
17607;DHT22;8922;52.240;20.980;2022-07-22T01:37:52;24.10;81.20
17607;DHT22;8922;52.240;20.980;2022-07-22T01:40:19;24.10;80.70
17607;DHT22;8922;52.240;20.980;2022-07-22T01:42:46;24.10;80.50
17607;DHT22;8922;52.240;20.980;2022-07-22T01:45:12;24.10;80.40
17607;DHT22;8922;52.240;20.980;2022-07-22T01:47:39;24.10;80.30
17607;DHT22;8922;52.240;20.980;2022-07-22T01:50:08;24.10;80.20
17607;DHT22;8922;52.240;20.980;2022-07-22T01:52:36;24.10;80.20
17607;DHT22;8922;52.240;20.980;2022-07-22T01:55:05;24.20;80.20
17607;DHT22;8922;52.240;20.980;2022-07-22T01:57:32;24.10;79.90
17607;DHT22;8922;52.240;20.980;2022-07-22T01:59:58;24.20;79.90
17607;DHT22;8922;52.240;20.980;2022-07-22T02:02:25;24.20;79.80
17607;DHT22;8922;52.240;20.980;2022-07-22T02:04:52;24.20;79.40
17607;DHT22;8922;52.240;20.980;2022-07-22T02:07:19;24.20;79.40
17607;DHT22;8922;52.240;20.980;2022-07-22T02:09:46;24.10;79.30
17607;DHT22;8922;52.240;20.980;2022-07-22T02:12:14;24.10;79.50
17607;DHT22;8922;52.240;20.980;2022-07-22T02:14:40;24.10;79.90
17607;DHT22;8922;52.240;20.980;2022-07-22T02:17:07;24.00;80.10
17607;DHT22;8922;52.240;20.980;2022-07-22T02:19:34;24.00;80.30
17607;DHT22;8922;52.240;20.980;2022-07-22T02:22:01;24.00;80.50
17607;DHT22;8922;52.240;20.980;2022-07-22T02:24:28;23.90;80.60
17607;DHT22;8922;52.240;20.980;2022-07-22T02:26:55;23.90;80.60
17607;DHT22;8922;52.240;20.980;2022-07-22T02:29:23;23.90;80.60
17607;DHT22;8922;52.240;20.980;2022-07-22T02:31:50;23.90;80.60
17607;DHT22;8922;52.240;20.980;2022-07-22T02:34:17;23.90;80.70
17607;DHT22;8922;52.240;20.980;2022-07-22T02:36:44;23.80;80.80
17607;DHT22;8922;52.240;20.980;2022-07-22T02:39:11;23.80;81.30
17607;DHT22;8922;52.240;20.980;2022-07-22T02:41:38;23.80;81.60
17607;DHT22;8922;52.240;20.980;2022-07-22T02:44:05;23.70;82.00
17607;DHT22;8922;52.240;20.980;2022-07-22T02:46:33;23.60;83.20
17607;DHT22;8922;52.240;20.980;2022-07-22T02:49:00;23.50;82.90
17607;DHT22;8922;52.240;20.980;2022-07-22T02:51:26;23.40;83.20
17607;DHT22;8922;52.240;20.980;2022-07-22T02:53:53;23.40;83.50
17607;DHT22;8922;52.240;20.980;2022-07-22T02:56:20;23.30;83.80
17607;DHT22;8922;52.240;20.980;2022-07-22T02:58:47;23.20;84.20
17607;DHT22;8922;52.240;20.980;2022-07-22T03:01:18;23.20;84.60
17607;DHT22;8922;52.240;20.980;2022-07-22T03:03:47;23.10;84.90
17607;DHT22;8922;52.240;20.980;2022-07-22T03:06:13;23.10;85.10
17607;DHT22;8922;52.240;20.980;2022-07-22T03:08:40;23.10;85.20
17607;DHT22;8922;52.240;20.980;2022-07-22T03:11:07;23.10;85.30
17607;DHT22;8922;52.240;20.980;2022-07-22T03:13:34;23.10;85.60
17607;DHT22;8922;52.240;20.980;2022-07-22T03:16:01;23.10;85.90
17607;DHT22;8922;52.240;20.980;2022-07-22T03:18:27;23.00;85.90
17607;DHT22;8922;52.240;20.980;2022-07-22T03:20:56;23.00;85.90
17607;DHT22;8922;52.240;20.980;2022-07-22T03:23:23;23.00;85.80
17607;DHT22;8922;52.240;20.980;2022-07-22T03:25:49;23.00;85.90
17607;DHT22;8922;52.240;20.980;2022-07-22T03:28:16;23.00;85.90
17607;DHT22;8922;52.240;20.980;2022-07-22T03:30:43;23.10;86.20
17607;DHT22;8922;52.240;20.980;2022-07-22T03:33:10;23.10;86.20
17607;DHT22;8922;52.240;20.980;2022-07-22T03:35:37;23.20;86.20
17607;DHT22;8922;52.240;20.980;2022-07-22T03:38:05;23.20;86.10
17607;DHT22;8922;52.240;20.980;2022-07-22T03:40:32;23.20;86.10
17607;DHT22;8922;52.240;20.980;2022-07-22T03:42:59;23.20;86.30
17607;DHT22;8922;52.240;20.980;2022-07-22T03:45:26;23.30;86.20
17607;DHT22;8922;52.240;20.980;2022-07-22T03:47:52;23.30;86.20
17607;DHT22;8922;52.240;20.980;2022-07-22T03:50:20;23.40;86.20
17607;DHT22;8922;52.240;20.980;2022-07-22T03:52:47;23.40;86.00
17607;DHT22;8922;52.240;20.980;2022-07-22T03:55:15;23.50;86.00
17607;DHT22;8922;52.240;20.980;2022-07-22T03:57:42;23.60;86.00
17607;DHT22;8922;52.240;20.980;2022-07-22T04:00:09;23.60;86.00
17607;DHT22;8922;52.240;20.980;2022-07-22T04:02:36;23.60;85.90
17607;DHT22;8922;52.240;20.980;2022-07-22T04:05:03;23.70;86.00
17607;DHT22;8922;52.240;20.980;2022-07-22T04:07:30;23.70;85.80
17607;DHT22;8922;52.240;20.980;2022-07-22T04:09:57;23.70;85.90
17607;DHT22;8922;52.240;20.980;2022-07-22T04:12:32;23.80;86.10
17607;DHT22;8922;52.240;20.980;2022-07-22T04:14:59;23.80;86.20
17607;DHT22;8922;52.240;20.980;2022-07-22T04:17:26;23.80;86.30
17607;DHT22;8922;52.240;20.980;2022-07-22T04:19:53;23.90;86.10
17607;DHT22;8922;52.240;20.980;2022-07-22T04:22:19;24.00;86.10
17607;DHT22;8922;52.240;20.980;2022-07-22T04:24:46;24.00;85.50
17607;DHT22;8922;52.240;20.980;2022-07-22T04:27:13;24.10;84.60
17607;DHT22;8922;52.240;20.980;2022-07-22T04:29:41;24.10;84.00
17607;DHT22;8922;52.240;20.980;2022-07-22T04:32:08;24.20;83.30
17607;DHT22;8922;52.240;20.980;2022-07-22T04:34:35;24.20;82.10
17607;DHT22;8922;52.240;20.980;2022-07-22T04:37:02;24.30;81.70
17607;DHT22;8922;52.240;20.980;2022-07-22T04:39:29;24.30;81.30
17607;DHT22;8922;52.240;20.980;2022-07-22T04:41:56;24.40;81.00
17607;DHT22;8922;52.240;20.980;2022-07-22T04:44:23;24.40;80.60
17607;DHT22;8922;52.240;20.980;2022-07-22T04:46:51;24.40;80.40
17607;DHT22;8922;52.240;20.980;2022-07-22T04:49:18;24.50;80.10
17607;DHT22;8922;52.240;20.980;2022-07-22T04:51:44;24.60;79.80
17607;DHT22;8922;52.240;20.980;2022-07-22T04:54:11;24.60;79.80
17607;DHT22;8922;52.240;20.980;2022-07-22T04:56:38;24.60;79.70
17607;DHT22;8922;52.240;20.980;2022-07-22T04:59:05;24.70;79.30
17607;DHT22;8922;52.240;20.980;2022-07-22T05:01:32;24.70;80.10
17607;DHT22;8922;52.240;20.980;2022-07-22T05:04:00;24.80;79.80
17607;DHT22;8922;52.240;20.980;2022-07-22T05:06:27;24.90;79.40
17607;DHT22;8922;52.240;20.980;2022-07-22T05:08:54;24.90;79.30
17607;DHT22;8922;52.240;20.980;2022-07-22T05:11:21;25.00;79.10
17607;DHT22;8922;52.240;20.980;2022-07-22T05:13:48;25.10;79.00
17607;DHT22;8922;52.240;20.980;2022-07-22T05:16:14;25.10;78.80
17607;DHT22;8922;52.240;20.980;2022-07-22T05:18:41;25.20;78.20
17607;DHT22;8922;52.240;20.980;2022-07-22T05:21:09;25.20;77.70
17607;DHT22;8922;52.240;20.980;2022-07-22T05:23:36;25.30;77.10
17607;DHT22;8922;52.240;20.980;2022-07-22T05:26:04;25.30;77.00
17607;DHT22;8922;52.240;20.980;2022-07-22T05:28:31;25.40;77.00
17607;DHT22;8922;52.240;20.980;2022-07-22T05:30:58;25.50;76.90
17607;DHT22;8922;52.240;20.980;2022-07-22T05:33:25;25.60;76.70
17607;DHT22;8922;52.240;20.980;2022-07-22T05:35:52;25.60;76.50
17607;DHT22;8922;52.240;20.980;2022-07-22T05:38:20;25.60;76.10
17607;DHT22;8922;52.240;20.980;2022-07-22T05:40:47;25.60;76.10
17607;DHT22;8922;52.240;20.980;2022-07-22T05:43:14;25.70;75.90
17607;DHT22;8922;52.240;20.980;2022-07-22T05:45:41;25.80;75.60
17607;DHT22;8922;52.240;20.980;2022-07-22T05:48:07;25.80;75.60
17607;DHT22;8922;52.240;20.980;2022-07-22T05:50:35;25.90;75.50
17607;DHT22;8922;52.240;20.980;2022-07-22T05:53:03;25.90;75.00
17607;DHT22;8922;52.240;20.980;2022-07-22T05:55:31;25.90;74.80
17607;DHT22;8922;52.240;20.980;2022-07-22T05:57:58;26.00;74.70
17607;DHT22;8922;52.240;20.980;2022-07-22T06:00:25;26.10;74.40
17607;DHT22;8922;52.240;20.980;2022-07-22T06:02:52;26.20;73.60
17607;DHT22;8922;52.240;20.980;2022-07-22T06:05:19;26.30;73.50
17607;DHT22;8922;52.240;20.980;2022-07-22T06:07:46;26.30;73.40
17607;DHT22;8922;52.240;20.980;2022-07-22T06:10:13;26.40;73.50
17607;DHT22;8922;52.240;20.980;2022-07-22T06:12:41;26.50;73.20
17607;DHT22;8922;52.240;20.980;2022-07-22T06:15:08;26.60;72.40
17607;DHT22;8922;52.240;20.980;2022-07-22T06:17:35;26.70;72.20
17607;DHT22;8922;52.240;20.980;2022-07-22T06:20:03;26.80;71.90
17607;DHT22;8922;52.240;20.980;2022-07-22T06:22:30;26.90;71.60
17607;DHT22;8922;52.240;20.980;2022-07-22T06:24:57;27.00;71.10
17607;DHT22;8922;52.240;20.980;2022-07-22T06:27:23;27.00;71.10
17607;DHT22;8922;52.240;20.980;2022-07-22T06:29:51;27.20;71.10
17607;DHT22;8922;52.240;20.980;2022-07-22T06:32:18;27.20;71.00
17607;DHT22;8922;52.240;20.980;2022-07-22T06:34:45;27.20;70.50
17607;DHT22;8922;52.240;20.980;2022-07-22T06:37:12;27.40;70.40
17607;DHT22;8922;52.240;20.980;2022-07-22T06:39:38;27.40;70.30
17607;DHT22;8922;52.240;20.980;2022-07-22T06:42:05;27.50;69.80
17607;DHT22;8922;52.240;20.980;2022-07-22T06:44:32;27.50;70.00
17607;DHT22;8922;52.240;20.980;2022-07-22T06:47:00;27.60;69.90
17607;DHT22;8922;52.240;20.980;2022-07-22T06:49:27;27.60;69.90
17607;DHT22;8922;52.240;20.980;2022-07-22T06:51:54;27.70;70.10
17607;DHT22;8922;52.240;20.980;2022-07-22T06:54:21;27.70;70.30
17607;DHT22;8922;52.240;20.980;2022-07-22T06:56:48;27.80;70.30
17607;DHT22;8922;52.240;20.980;2022-07-22T06:59:15;27.80;70.40
17607;DHT22;8922;52.240;20.980;2022-07-22T07:01:41;27.80;70.60
17607;DHT22;8922;52.240;20.980;2022-07-22T07:04:10;27.90;70.90
17607;DHT22;8922;52.240;20.980;2022-07-22T07:06:37;28.00;71.10
17607;DHT22;8922;52.240;20.980;2022-07-22T07:09:03;28.00;71.00
17607;DHT22;8922;52.240;20.980;2022-07-22T07:11:30;28.00;71.20
17607;DHT22;8922;52.240;20.980;2022-07-22T07:13:57;28.10;71.80
17607;DHT22;8922;52.240;20.980;2022-07-22T07:16:24;28.20;70.50
17607;DHT22;8922;52.240;20.980;2022-07-22T07:18:51;28.30;70.30
17607;DHT22;8922;52.240;20.980;2022-07-22T07:21:19;28.30;69.90
17607;DHT22;8922;52.240;20.980;2022-07-22T07:23:46;28.40;69.70
17607;DHT22;8922;52.240;20.980;2022-07-22T07:26:13;28.50;69.60
17607;DHT22;8922;52.240;20.980;2022-07-22T07:28:40;28.60;69.30
17607;DHT22;8922;52.240;20.980;2022-07-22T07:31:06;28.70;68.90
17607;DHT22;8922;52.240;20.980;2022-07-22T07:33:34;28.90;69.30
17607;DHT22;8922;52.240;20.980;2022-07-22T07:36:01;29.00;68.60
17607;DHT22;8922;52.240;20.980;2022-07-22T07:38:29;29.10;67.70
17607;DHT22;8922;52.240;20.980;2022-07-22T07:40:56;29.10;66.90
17607;DHT22;8922;52.240;20.980;2022-07-22T07:43:24;29.20;66.80
17607;DHT22;8922;52.240;20.980;2022-07-22T07:45:51;29.30;66.70
17607;DHT22;8922;52.240;20.980;2022-07-22T07:48:17;29.40;66.40
17607;DHT22;8922;52.240;20.980;2022-07-22T07:50:44;29.50;66.40
17607;DHT22;8922;52.240;20.980;2022-07-22T07:53:15;29.60;66.40
17607;DHT22;8922;52.240;20.980;2022-07-22T07:55:43;29.70;66.40
17607;DHT22;8922;52.240;20.980;2022-07-22T07:58:10;29.70;66.00
17607;DHT22;8922;52.240;20.980;2022-07-22T08:00:37;29.80;65.90
17607;DHT22;8922;52.240;20.980;2022-07-22T08:03:05;29.90;65.90
17607;DHT22;8922;52.240;20.980;2022-07-22T08:05:31;30.00;66.00
17607;DHT22;8922;52.240;20.980;2022-07-22T08:07:58;30.10;65.90
17607;DHT22;8922;52.240;20.980;2022-07-22T08:10:25;30.10;66.00
17607;DHT22;8922;52.240;20.980;2022-07-22T08:12:53;30.20;66.10
17607;DHT22;8922;52.240;20.980;2022-07-22T08:15:21;30.20;65.50
17607;DHT22;8922;52.240;20.980;2022-07-22T08:17:48;30.30;65.50
17607;DHT22;8922;52.240;20.980;2022-07-22T08:20:15;30.40;65.20
17607;DHT22;8922;52.240;20.980;2022-07-22T08:22:42;30.40;65.00
17607;DHT22;8922;52.240;20.980;2022-07-22T08:25:08;30.60;65.50
17607;DHT22;8922;52.240;20.980;2022-07-22T08:27:35;30.60;65.80
17607;DHT22;8922;52.240;20.980;2022-07-22T08:30:06;30.70;66.00
17607;DHT22;8922;52.240;20.980;2022-07-22T08:32:33;30.80;65.70
17607;DHT22;8922;52.240;20.980;2022-07-22T08:35:01;30.80;65.90
17607;DHT22;8922;52.240;20.980;2022-07-22T08:37:28;30.80;66.20
17607;DHT22;8922;52.240;20.980;2022-07-22T08:39:55;30.80;66.60
17607;DHT22;8922;52.240;20.980;2022-07-22T08:42:22;31.00;66.80
17607;DHT22;8922;52.240;20.980;2022-07-22T08:44:50;31.10;66.70
17607;DHT22;8922;52.240;20.980;2022-07-22T08:47:22;31.20;66.50
17607;DHT22;8922;52.240;20.980;2022-07-22T08:49:49;31.40;66.40
17607;DHT22;8922;52.240;20.980;2022-07-22T08:52:15;31.50;66.80
17607;DHT22;8922;52.240;20.980;2022-07-22T08:54:42;31.50;65.10
17607;DHT22;8922;52.240;20.980;2022-07-22T08:57:09;31.60;65.10
17607;DHT22;8922;52.240;20.980;2022-07-22T08:59:49;31.60;65.60
17607;DHT22;8922;52.240;20.980;2022-07-22T09:02:16;31.70;65.10
17607;DHT22;8922;52.240;20.980;2022-07-22T09:04:54;31.70;65.40
17607;DHT22;8922;52.240;20.980;2022-07-22T09:07:29;31.80;65.60
17607;DHT22;8922;52.240;20.980;2022-07-22T09:09:57;31.90;65.20
17607;DHT22;8922;52.240;20.980;2022-07-22T09:12:25;32.00;64.80
17607;DHT22;8922;52.240;20.980;2022-07-22T09:14:55;32.00;66.00
17607;DHT22;8922;52.240;20.980;2022-07-22T09:17:27;32.10;65.20
17607;DHT22;8922;52.240;20.980;2022-07-22T09:19:56;32.10;64.80
17607;DHT22;8922;52.240;20.980;2022-07-22T09:22:36;32.30;65.00
17607;DHT22;8922;52.240;20.980;2022-07-22T09:25:26;32.40;64.60
17607;DHT22;8922;52.240;20.980;2022-07-22T09:27:56;32.50;64.50
17607;DHT22;8922;52.240;20.980;2022-07-22T09:30:24;32.60;64.50
17607;DHT22;8922;52.240;20.980;2022-07-22T09:32:53;32.70;64.60
17607;DHT22;8922;52.240;20.980;2022-07-22T09:35:23;32.70;64.30
17607;DHT22;8922;52.240;20.980;2022-07-22T09:37:52;32.90;64.40
17607;DHT22;8922;52.240;20.980;2022-07-22T09:40:21;33.10;64.10
17607;DHT22;8922;52.240;20.980;2022-07-22T09:42:49;33.30;64.00
17607;DHT22;8922;52.240;20.980;2022-07-22T09:45:17;33.40;63.80
17607;DHT22;8922;52.240;20.980;2022-07-22T09:47:45;33.60;63.20
17607;DHT22;8922;52.240;20.980;2022-07-22T09:50:20;33.80;63.10
17607;DHT22;8922;52.240;20.980;2022-07-22T09:52:50;34.00;62.90
17607;DHT22;8922;52.240;20.980;2022-07-22T09:55:19;34.30;62.30
17607;DHT22;8922;52.240;20.980;2022-07-22T09:57:47;34.50;61.90
17607;DHT22;8922;52.240;20.980;2022-07-22T10:00:16;34.60;61.40
17607;DHT22;8922;52.240;20.980;2022-07-22T10:02:47;34.60;61.20
17607;DHT22;8922;52.240;20.980;2022-07-22T10:05:16;34.60;61.00
17607;DHT22;8922;52.240;20.980;2022-07-22T10:07:44;34.50;61.00
17607;DHT22;8922;52.240;20.980;2022-07-22T10:10:14;34.50;61.10
17607;DHT22;8922;52.240;20.980;2022-07-22T10:12:42;34.70;60.60
17607;DHT22;8922;52.240;20.980;2022-07-22T10:15:10;34.90;60.10
17607;DHT22;8922;52.240;20.980;2022-07-22T10:17:40;35.10;59.70
17607;DHT22;8922;52.240;20.980;2022-07-22T10:20:09;35.20;58.80
17607;DHT22;8922;52.240;20.980;2022-07-22T10:22:51;35.10;58.80
17607;DHT22;8922;52.240;20.980;2022-07-22T10:25:21;35.10;59.10
17607;DHT22;8922;52.240;20.980;2022-07-22T10:27:51;35.00;59.40
17607;DHT22;8922;52.240;20.980;2022-07-22T10:30:21;34.90;59.60
17607;DHT22;8922;52.240;20.980;2022-07-22T10:33:06;35.00;59.80
17607;DHT22;8922;52.240;20.980;2022-07-22T10:35:35;35.20;59.30
17607;DHT22;8922;52.240;20.980;2022-07-22T10:38:07;35.40;58.70
17607;DHT22;8922;52.240;20.980;2022-07-22T10:40:53;35.50;58.30
17607;DHT22;8922;52.240;20.980;2022-07-22T10:43:22;35.50;57.80
17607;DHT22;8922;52.240;20.980;2022-07-22T10:45:51;35.60;57.80
17607;DHT22;8922;52.240;20.980;2022-07-22T10:48:23;35.70;58.10
17607;DHT22;8922;52.240;20.980;2022-07-22T10:51:04;35.90;57.90
17607;DHT22;8922;52.240;20.980;2022-07-22T10:53:43;36.10;57.60
17607;DHT22;8922;52.240;20.980;2022-07-22T10:56:18;36.30;57.00
17607;DHT22;8922;52.240;20.980;2022-07-22T10:58:49;36.40;56.80
17607;DHT22;8922;52.240;20.980;2022-07-22T11:01:19;36.60;56.50
17607;DHT22;8922;52.240;20.980;2022-07-22T11:03:47;36.70;55.80
17607;DHT22;8922;52.240;20.980;2022-07-22T11:06:20;36.80;55.50
17607;DHT22;8922;52.240;20.980;2022-07-22T11:08:49;37.00;55.50
17607;DHT22;8922;52.240;20.980;2022-07-22T11:11:18;37.20;55.10
17607;DHT22;8922;52.240;20.980;2022-07-22T11:13:45;37.30;54.70
17607;DHT22;8922;52.240;20.980;2022-07-22T11:16:20;37.40;54.50
17607;DHT22;8922;52.240;20.980;2022-07-22T11:18:51;37.50;54.70
17607;DHT22;8922;52.240;20.980;2022-07-22T11:21:19;37.50;54.50
17607;DHT22;8922;52.240;20.980;2022-07-22T11:23:48;37.30;54.70
17607;DHT22;8922;52.240;20.980;2022-07-22T11:26:18;37.30;54.90
17607;DHT22;8922;52.240;20.980;2022-07-22T11:28:46;37.40;54.40
17607;DHT22;8922;52.240;20.980;2022-07-22T11:31:17;37.30;53.60
17607;DHT22;8922;52.240;20.980;2022-07-22T11:33:44;37.20;53.30
17607;DHT22;8922;52.240;20.980;2022-07-22T11:36:11;37.10;53.80
17607;DHT22;8922;52.240;20.980;2022-07-22T11:38:46;37.20;53.80
17607;DHT22;8922;52.240;20.980;2022-07-22T11:41:15;37.20;54.00
17607;DHT22;8922;52.240;20.980;2022-07-22T11:43:45;37.30;54.00
17607;DHT22;8922;52.240;20.980;2022-07-22T11:46:13;37.40;53.60
17607;DHT22;8922;52.240;20.980;2022-07-22T11:48:40;37.40;53.20
17607;DHT22;8922;52.240;20.980;2022-07-22T11:51:08;37.30;53.20
17607;DHT22;8922;52.240;20.980;2022-07-22T11:53:37;37.20;53.30
17607;DHT22;8922;52.240;20.980;2022-07-22T11:56:05;37.00;53.50
17607;DHT22;8922;52.240;20.980;2022-07-22T11:58:36;36.80;53.70
17607;DHT22;8922;52.240;20.980;2022-07-22T12:01:07;36.40;53.80
17607;DHT22;8922;52.240;20.980;2022-07-22T12:03:36;36.30;54.20
17607;DHT22;8922;52.240;20.980;2022-07-22T12:06:06;36.10;54.70
17607;DHT22;8922;52.240;20.980;2022-07-22T12:08:34;35.90;55.20
17607;DHT22;8922;52.240;20.980;2022-07-22T12:11:05;35.80;55.50
17607;DHT22;8922;52.240;20.980;2022-07-22T12:13:32;36.00;55.40
17607;DHT22;8922;52.240;20.980;2022-07-22T12:15:59;36.20;55.10
17607;DHT22;8922;52.240;20.980;2022-07-22T12:18:27;36.10;54.80
17607;DHT22;8922;52.240;20.980;2022-07-22T12:20:55;35.90;55.10
17607;DHT22;8922;52.240;20.980;2022-07-22T12:23:25;35.60;55.30
17607;DHT22;8922;52.240;20.980;2022-07-22T12:25:54;35.40;55.60
17607;DHT22;8922;52.240;20.980;2022-07-22T12:28:22;35.30;56.10
17607;DHT22;8922;52.240;20.980;2022-07-22T12:30:49;35.50;56.20
17607;DHT22;8922;52.240;20.980;2022-07-22T12:33:18;35.60;55.90
17607;DHT22;8922;52.240;20.980;2022-07-22T12:35:59;35.80;55.80
17607;DHT22;8922;52.240;20.980;2022-07-22T12:38:26;36.00;55.60
17607;DHT22;8922;52.240;20.980;2022-07-22T12:40:53;36.00;55.30
17607;DHT22;8922;52.240;20.980;2022-07-22T12:43:24;36.00;54.70
17607;DHT22;8922;52.240;20.980;2022-07-22T12:45:51;36.00;54.80
17607;DHT22;8922;52.240;20.980;2022-07-22T12:48:19;36.00;54.60
17607;DHT22;8922;52.240;20.980;2022-07-22T12:50:54;36.10;54.50
17607;DHT22;8922;52.240;20.980;2022-07-22T12:53:24;36.20;54.30
17607;DHT22;8922;52.240;20.980;2022-07-22T12:55:56;36.30;54.00
17607;DHT22;8922;52.240;20.980;2022-07-22T12:58:25;36.50;54.20
17607;DHT22;8922;52.240;20.980;2022-07-22T13:00:54;36.60;54.10
17607;DHT22;8922;52.240;20.980;2022-07-22T13:03:21;36.70;53.70
17607;DHT22;8922;52.240;20.980;2022-07-22T13:05:54;36.70;53.40
17607;DHT22;8922;52.240;20.980;2022-07-22T13:08:21;36.70;53.10
17607;DHT22;8922;52.240;20.980;2022-07-22T13:10:50;36.60;53.20
17607;DHT22;8922;52.240;20.980;2022-07-22T13:13:17;36.50;53.40
17607;DHT22;8922;52.240;20.980;2022-07-22T13:15:44;36.40;53.60
17607;DHT22;8922;52.240;20.980;2022-07-22T13:18:11;36.40;53.90
17607;DHT22;8922;52.240;20.980;2022-07-22T13:20:38;36.40;53.90
17607;DHT22;8922;52.240;20.980;2022-07-22T13:23:05;36.30;53.50
17607;DHT22;8922;52.240;20.980;2022-07-22T13:25:32;36.40;53.60
17607;DHT22;8922;52.240;20.980;2022-07-22T13:28:01;36.40;53.50
17607;DHT22;8922;52.240;20.980;2022-07-22T13:30:28;36.40;53.20
17607;DHT22;8922;52.240;20.980;2022-07-22T13:32:55;36.40;53.00
17607;DHT22;8922;52.240;20.980;2022-07-22T13:35:22;36.20;53.40
17607;DHT22;8922;52.240;20.980;2022-07-22T13:37:49;36.10;53.50
17607;DHT22;8922;52.240;20.980;2022-07-22T13:40:16;36.00;53.60
17607;DHT22;8922;52.240;20.980;2022-07-22T13:42:43;36.00;53.90
17607;DHT22;8922;52.240;20.980;2022-07-22T13:45:11;35.90;53.80
17607;DHT22;8922;52.240;20.980;2022-07-22T13:47:40;35.90;53.90
17607;DHT22;8922;52.240;20.980;2022-07-22T13:50:07;35.80;54.10
17607;DHT22;8922;52.240;20.980;2022-07-22T13:52:35;35.90;54.20
17607;DHT22;8922;52.240;20.980;2022-07-22T13:55:01;35.90;54.10
17607;DHT22;8922;52.240;20.980;2022-07-22T13:57:28;35.90;54.40
17607;DHT22;8922;52.240;20.980;2022-07-22T13:59:55;35.90;54.20
17607;DHT22;8922;52.240;20.980;2022-07-22T14:02:24;35.80;54.10
17607;DHT22;8922;52.240;20.980;2022-07-22T14:04:51;35.70;54.20
17607;DHT22;8922;52.240;20.980;2022-07-22T14:07:17;35.60;54.40
17607;DHT22;8922;52.240;20.980;2022-07-22T14:09:44;35.60;54.60
17607;DHT22;8922;52.240;20.980;2022-07-22T14:12:11;35.60;54.90
17607;DHT22;8922;52.240;20.980;2022-07-22T14:14:38;35.50;55.00
17607;DHT22;8922;52.240;20.980;2022-07-22T14:17:05;35.40;55.10
17607;DHT22;8922;52.240;20.980;2022-07-22T14:19:33;35.30;55.30
17607;DHT22;8922;52.240;20.980;2022-07-22T14:22:00;35.30;55.50
17607;DHT22;8922;52.240;20.980;2022-07-22T14:24:26;35.30;55.40
17607;DHT22;8922;52.240;20.980;2022-07-22T14:26:53;35.30;55.40
17607;DHT22;8922;52.240;20.980;2022-07-22T14:29:20;35.30;55.50
17607;DHT22;8922;52.240;20.980;2022-07-22T14:31:47;35.30;55.60
17607;DHT22;8922;52.240;20.980;2022-07-22T14:34:14;35.30;55.30
17607;DHT22;8922;52.240;20.980;2022-07-22T14:36:42;35.20;55.20
17607;DHT22;8922;52.240;20.980;2022-07-22T14:39:09;35.20;55.30
17607;DHT22;8922;52.240;20.980;2022-07-22T14:41:36;35.10;55.20
17607;DHT22;8922;52.240;20.980;2022-07-22T14:44:03;35.10;55.20
17607;DHT22;8922;52.240;20.980;2022-07-22T14:46:30;35.10;55.30
17607;DHT22;8922;52.240;20.980;2022-07-22T14:48:57;35.00;55.30
17607;DHT22;8922;52.240;20.980;2022-07-22T14:51:24;34.90;55.40
17607;DHT22;8922;52.240;20.980;2022-07-22T14:53:52;34.80;55.50
17607;DHT22;8922;52.240;20.980;2022-07-22T14:56:19;34.80;55.90
17607;DHT22;8922;52.240;20.980;2022-07-22T14:58:46;34.70;56.20
17607;DHT22;8922;52.240;20.980;2022-07-22T15:01:12;34.60;57.00
17607;DHT22;8922;52.240;20.980;2022-07-22T15:03:39;34.60;56.50
17607;DHT22;8922;52.240;20.980;2022-07-22T15:06:06;34.50;56.50
17607;DHT22;8922;52.240;20.980;2022-07-22T15:08:33;34.40;56.70
17607;DHT22;8922;52.240;20.980;2022-07-22T15:11:01;34.40;57.00
17607;DHT22;8922;52.240;20.980;2022-07-22T15:13:28;34.30;56.90
17607;DHT22;8922;52.240;20.980;2022-07-22T15:15:56;34.20;56.80
17607;DHT22;8922;52.240;20.980;2022-07-22T15:18:23;34.20;57.10
17607;DHT22;8922;52.240;20.980;2022-07-22T15:20:50;34.20;57.40
17607;DHT22;8922;52.240;20.980;2022-07-22T15:23:19;34.10;57.50
17607;DHT22;8922;52.240;20.980;2022-07-22T15:25:46;34.10;57.60
17607;DHT22;8922;52.240;20.980;2022-07-22T15:28:14;34.00;57.50
17607;DHT22;8922;52.240;20.980;2022-07-22T15:30:41;33.90;57.20
17607;DHT22;8922;52.240;20.980;2022-07-22T15:33:08;33.90;57.10
17607;DHT22;8922;52.240;20.980;2022-07-22T15:35:34;33.80;57.20